createdAt,value
2023-05-16T00:01:25.039Z,10.10
2023-05-16T00:03:52.582Z,10.11
2023-05-16T00:06:20.311Z,10.11
2023-05-16T00:08:48.590Z,10.11
2023-05-16T00:11:17.679Z,10.10
2023-05-16T00:13:45.438Z,10.11
2023-05-16T00:16:14.700Z,10.06
2023-05-16T00:18:42.216Z,10.14
2023-05-16T00:21:09.637Z,10.11
2023-05-16T00:23:37.080Z,10.02
2023-05-16T00:26:04.524Z,10.01
2023-05-16T00:28:31.949Z,10.05
2023-05-16T00:30:59.512Z,10.21
2023-05-16T00:33:27.011Z,10.16
2023-05-16T00:35:54.506Z,10.03
2023-05-16T00:38:21.924Z,9.96
2023-05-16T00:40:49.515Z,9.97
2023-05-16T00:43:16.948Z,10.01
2023-05-16T00:45:45.808Z,10.02
2023-05-16T00:48:15.073Z,10.00
2023-05-16T00:50:42.762Z,9.91
2023-05-16T00:53:10.834Z,10.00
2023-05-16T00:55:38.768Z,9.98
2023-05-16T00:58:08.856Z,10.02
2023-05-16T01:00:36.377Z,10.05
2023-05-16T01:03:05.918Z,10.05
2023-05-16T01:05:34.225Z,10.01
2023-05-16T01:08:01.905Z,10.01
2023-05-16T01:11:02.109Z,9.82
2023-05-16T01:13:54.714Z,9.83
2023-05-16T01:16:34.618Z,9.79
2023-05-16T01:19:21.574Z,9.79
2023-05-16T01:22:05.761Z,9.77
2023-05-16T01:25:11.388Z,9.96
2023-05-16T01:27:41.080Z,9.80
2023-05-16T01:30:16.957Z,9.73
2023-05-16T01:32:44.799Z,9.79
2023-05-16T01:35:14.767Z,9.76
2023-05-16T01:37:56.097Z,9.75
2023-05-16T01:40:37.986Z,9.83
2023-05-16T01:43:11.928Z,9.75
2023-05-16T01:45:47.738Z,9.82
2023-05-16T01:48:22.374Z,9.68
2023-05-16T01:50:56.440Z,9.63
2023-05-16T01:53:33.626Z,9.59
2023-05-16T01:56:02.487Z,9.64
2023-05-16T01:58:33.310Z,9.68
2023-05-16T02:01:06.289Z,9.61
2023-05-16T02:03:34.776Z,9.49
2023-05-16T02:06:02.452Z,9.44
2023-05-16T02:08:30.331Z,9.46
2023-05-16T02:10:57.765Z,9.43
2023-05-16T02:13:25.292Z,9.40
2023-05-16T02:15:53.187Z,9.38
2023-05-16T02:18:20.810Z,9.33
2023-05-16T02:20:48.252Z,9.25
2023-05-16T02:23:16.905Z,9.27
2023-05-16T02:25:44.618Z,9.17
2023-05-16T02:28:12.143Z,9.14
2023-05-16T02:30:39.944Z,9.28
2023-05-16T02:33:07.569Z,9.24
2023-05-16T02:35:35.126Z,9.23
2023-05-16T02:38:02.692Z,9.12
2023-05-16T02:40:30.134Z,9.10
2023-05-16T02:42:57.686Z,9.00
2023-05-16T02:45:25.316Z,8.91
2023-05-16T02:47:52.900Z,8.86
2023-05-16T02:50:20.719Z,8.83
2023-05-16T02:52:48.427Z,8.75
2023-05-16T02:55:22.247Z,8.73
2023-05-16T02:57:51.184Z,8.68
2023-05-16T03:00:19.607Z,8.63
2023-05-16T03:02:47.678Z,8.60
2023-05-16T03:05:15.177Z,8.57
2023-05-16T03:07:42.736Z,8.58
2023-05-16T03:10:10.451Z,8.57
2023-05-16T03:12:39.190Z,8.56
2023-05-16T03:15:07.854Z,8.56
2023-05-16T03:17:36.935Z,8.54
2023-05-16T03:20:05.397Z,8.55
2023-05-16T03:22:32.800Z,8.51
2023-05-16T03:25:00.065Z,8.50
2023-05-16T03:27:28.105Z,8.44
2023-05-16T03:29:55.562Z,8.43
2023-05-16T03:32:23.091Z,8.40
2023-05-16T03:34:50.814Z,8.33
2023-05-16T03:37:18.403Z,8.30
2023-05-16T03:39:45.969Z,8.36
2023-05-16T03:42:13.331Z,8.30
2023-05-16T03:44:40.707Z,8.24
2023-05-16T03:47:08.355Z,8.22
2023-05-16T03:49:37.144Z,8.19
2023-05-16T03:52:05.710Z,8.15
2023-05-16T03:54:33.298Z,8.14
2023-05-16T03:57:00.866Z,8.09
2023-05-16T03:59:28.259Z,8.07
2023-05-16T04:01:55.730Z,8.02
2023-05-16T04:04:23.107Z,7.99
2023-05-16T04:06:50.571Z,7.95
2023-05-16T04:09:17.792Z,7.91
2023-05-16T04:11:45.965Z,7.89
2023-05-16T04:14:13.294Z,7.86
2023-05-16T04:16:40.832Z,7.81
2023-05-16T04:19:08.209Z,7.83
2023-05-16T04:21:36.470Z,7.76
2023-05-16T04:24:04.013Z,7.77
2023-05-16T04:26:32.024Z,7.77
2023-05-16T04:29:00.228Z,7.83
2023-05-16T04:31:27.858Z,7.88
2023-05-16T04:33:56.178Z,7.89
2023-05-16T04:36:23.799Z,7.90
2023-05-16T04:38:51.399Z,7.98
2023-05-16T04:41:18.872Z,8.05
2023-05-16T04:43:46.300Z,8.12
2023-05-16T04:46:15.598Z,8.22
2023-05-16T04:48:43.103Z,8.44
2023-05-16T04:51:10.537Z,8.86
2023-05-16T04:53:37.752Z,9.41
2023-05-16T04:56:06.053Z,9.99
2023-05-16T04:58:33.396Z,10.57
2023-05-16T05:01:01.864Z,11.18
2023-05-16T05:03:29.385Z,11.79
2023-05-16T05:05:56.873Z,12.37
2023-05-16T05:08:24.296Z,12.93
2023-05-16T05:10:51.638Z,13.53
2023-05-16T05:13:19.044Z,14.10
2023-05-16T05:15:46.685Z,14.66
2023-05-16T05:18:14.294Z,15.21
2023-05-16T05:20:42.271Z,15.75
2023-05-16T05:23:09.729Z,16.30
2023-05-16T05:25:37.831Z,16.80
2023-05-16T05:28:06.129Z,17.35
2023-05-16T05:30:33.723Z,17.84
2023-05-16T05:33:01.332Z,18.35
2023-05-16T05:35:29.214Z,18.79
2023-05-16T05:37:56.797Z,19.25
2023-05-16T05:40:24.309Z,19.67
2023-05-16T05:42:51.951Z,20.10
2023-05-16T05:45:19.387Z,20.48
2023-05-16T05:47:46.858Z,20.94
2023-05-16T05:50:15.724Z,21.33
2023-05-16T05:52:43.211Z,21.77
2023-05-16T05:55:10.716Z,22.12
2023-05-16T05:57:38.221Z,22.54
2023-05-16T06:00:07.124Z,22.95
2023-05-16T06:02:37.774Z,23.28
2023-05-16T06:05:05.896Z,23.60
2023-05-16T06:07:33.757Z,23.94
2023-05-16T06:10:05.271Z,24.25
2023-05-16T06:12:33.267Z,24.54
2023-05-16T06:15:00.797Z,24.81
2023-05-16T06:17:28.351Z,25.02
2023-05-16T06:19:55.718Z,25.25
2023-05-16T06:22:23.180Z,25.44
2023-05-16T06:24:50.902Z,25.61
2023-05-16T06:27:18.459Z,25.82
2023-05-16T06:29:45.858Z,25.94
2023-05-16T06:32:13.635Z,26.09
2023-05-16T06:34:41.081Z,26.28
2023-05-16T06:37:08.664Z,26.40
2023-05-16T06:39:36.087Z,26.55
2023-05-16T06:42:03.940Z,26.71
2023-05-16T06:44:33.373Z,26.89
2023-05-16T06:47:00.931Z,27.09
2023-05-16T06:49:28.544Z,27.20
2023-05-16T06:51:56.281Z,27.36
2023-05-16T06:54:23.743Z,27.55
2023-05-16T06:56:51.517Z,27.65
2023-05-16T06:59:19.022Z,27.78
2023-05-16T07:01:46.797Z,27.91
2023-05-16T07:04:15.512Z,28.09
2023-05-16T07:06:43.371Z,28.27
2023-05-16T07:09:11.169Z,28.41
2023-05-16T07:11:38.623Z,28.47
2023-05-16T07:14:06.581Z,28.43
2023-05-16T07:16:54.485Z,28.53
2023-05-16T07:19:37.335Z,28.55
2023-05-16T07:22:20.332Z,28.71
2023-05-16T07:25:11.007Z,28.89
2023-05-16T07:27:46.007Z,29.12
2023-05-16T07:30:19.236Z,29.17
2023-05-16T07:32:51.296Z,29.33
2023-05-16T07:35:39.263Z,29.30
2023-05-16T07:38:10.557Z,29.12
2023-05-16T07:40:50.075Z,28.25
2023-05-16T07:43:22.143Z,27.40
2023-05-16T07:46:16.161Z,26.99
2023-05-16T07:48:53.961Z,26.67
2023-05-16T07:51:26.208Z,26.73
2023-05-16T07:54:10.071Z,27.10
2023-05-16T07:56:45.995Z,27.42
2023-05-16T07:59:20.066Z,27.24
2023-05-16T08:01:49.089Z,27.29
2023-05-16T08:04:23.571Z,27.09
2023-05-16T08:07:01.782Z,26.93
2023-05-16T08:09:31.402Z,26.65
2023-05-16T08:12:05.695Z,26.51
2023-05-16T08:14:43.954Z,26.35
2023-05-16T08:17:11.841Z,26.05
2023-05-16T08:19:39.453Z,25.63
2023-05-16T08:22:15.349Z,25.77
2023-05-16T08:24:53.443Z,25.38
2023-05-16T08:27:21.874Z,25.55
2023-05-16T08:29:52.898Z,25.31
2023-05-16T08:32:24.422Z,24.96
2023-05-16T08:34:55.232Z,24.79
2023-05-16T08:37:28.021Z,24.85
2023-05-16T08:40:00.993Z,24.90
2023-05-16T08:42:30.912Z,24.14
2023-05-16T08:45:01.458Z,24.19
2023-05-16T08:47:36.126Z,24.23
2023-05-16T08:50:08.482Z,24.18
2023-05-16T08:52:44.140Z,24.05
2023-05-16T08:55:19.217Z,24.02
2023-05-16T08:57:50.804Z,23.52
2023-05-16T09:00:23.515Z,23.52
2023-05-16T09:02:56.550Z,23.77
2023-05-16T09:05:32.281Z,24.09
2023-05-16T09:08:07.384Z,24.31
2023-05-16T09:10:43.948Z,24.38
2023-05-16T09:13:13.508Z,24.39
2023-05-16T09:15:52.164Z,24.17
2023-05-16T09:18:30.422Z,23.44
2023-05-16T09:21:04.032Z,23.26
2023-05-16T09:23:39.716Z,22.97
2023-05-16T09:26:09.752Z,22.86
2023-05-16T09:28:40.764Z,22.40
2023-05-16T09:31:40.357Z,21.60
2023-05-16T09:34:17.700Z,21.00
2023-05-16T09:36:59.835Z,20.86
2023-05-16T09:39:30.013Z,21.25
2023-05-16T09:42:03.079Z,20.46
2023-05-16T09:44:32.378Z,20.13
2023-05-16T09:47:15.418Z,19.96
2023-05-16T09:49:48.798Z,19.71
2023-05-16T09:52:18.313Z,20.00
2023-05-16T09:54:51.555Z,20.30
2023-05-16T09:57:27.788Z,20.65
2023-05-16T10:00:02.253Z,21.26
2023-05-16T10:02:38.479Z,21.59
2023-05-16T10:05:14.283Z,21.97
2023-05-16T10:07:53.214Z,22.39
2023-05-16T10:10:25.740Z,22.51
2023-05-16T10:13:02.884Z,22.15
2023-05-16T10:15:33.659Z,21.93
2023-05-16T10:18:13.279Z,21.26
2023-05-16T10:20:52.443Z,20.76
2023-05-16T10:23:31.934Z,20.16
2023-05-16T10:26:05.523Z,20.15
2023-05-16T10:28:43.258Z,19.66
2023-05-16T10:31:12.831Z,19.68
2023-05-16T10:33:51.487Z,20.26
2023-05-16T10:36:28.479Z,20.95
2023-05-16T10:39:05.252Z,21.24
2023-05-16T10:41:36.632Z,20.89
2023-05-16T10:44:22.671Z,20.03
2023-05-16T10:46:59.987Z,20.45
2023-05-16T10:49:37.997Z,20.75
2023-05-16T10:52:12.599Z,20.64
2023-05-16T10:54:54.149Z,20.65
2023-05-16T10:57:25.975Z,20.58
2023-05-16T10:59:57.836Z,20.91
2023-05-16T11:02:26.172Z,20.74
2023-05-16T11:04:56.374Z,20.48
2023-05-16T11:07:25.249Z,20.36
2023-05-16T11:10:10.480Z,20.65
2023-05-16T11:12:38.617Z,20.47
2023-05-16T11:15:25.107Z,20.03
2023-05-16T11:18:09.080Z,19.76
2023-05-16T11:20:38.750Z,19.73
2023-05-16T11:23:26.028Z,19.34
2023-05-16T11:26:00.909Z,19.61
2023-05-16T11:28:28.852Z,19.78
2023-05-16T11:31:00.056Z,20.24
2023-05-16T11:33:29.969Z,20.77
2023-05-16T11:36:16.619Z,21.33
2023-05-16T11:38:44.598Z,21.24
2023-05-16T11:41:12.443Z,21.04
2023-05-16T11:43:44.015Z,20.59
2023-05-16T11:46:16.563Z,20.33
2023-05-16T11:48:46.541Z,20.11
2023-05-16T11:51:19.045Z,19.92
2023-05-16T11:53:50.447Z,19.92
2023-05-16T11:56:18.657Z,19.76
2023-05-16T11:58:46.244Z,19.62
2023-05-16T12:01:13.895Z,19.50
2023-05-16T12:03:41.920Z,19.64
2023-05-16T12:06:09.581Z,19.80
2023-05-16T12:08:37.561Z,19.95
2023-05-16T12:11:05.251Z,19.96
2023-05-16T12:13:32.916Z,20.13
2023-05-16T12:16:00.720Z,20.30
2023-05-16T12:18:28.369Z,20.44
2023-05-16T12:20:55.912Z,20.61
2023-05-16T12:23:23.675Z,20.73
2023-05-16T12:25:55.580Z,20.82
2023-05-16T12:28:23.051Z,20.79
2023-05-16T12:30:50.926Z,20.73
2023-05-16T12:33:18.596Z,20.70
2023-05-16T12:35:47.811Z,20.87
2023-05-16T12:38:17.438Z,20.87
2023-05-16T12:40:46.075Z,20.68
2023-05-16T12:43:19.934Z,20.13
2023-05-16T12:45:57.822Z,20.38
2023-05-16T12:48:34.577Z,20.45
2023-05-16T12:51:17.150Z,20.70
2023-05-16T12:53:57.631Z,20.94
2023-05-16T12:56:40.260Z,20.91
2023-05-16T12:59:09.070Z,20.89
2023-05-16T13:01:36.835Z,20.67
2023-05-16T13:04:05.199Z,20.64
2023-05-16T13:06:49.006Z,20.90
2023-05-16T13:09:20.473Z,21.04
2023-05-16T13:11:48.447Z,20.72
2023-05-16T13:14:17.418Z,20.41
2023-05-16T13:16:45.102Z,20.32
2023-05-16T13:19:12.691Z,20.31
2023-05-16T13:21:40.189Z,20.19
2023-05-16T13:24:07.914Z,20.31
2023-05-16T13:26:35.396Z,20.14
2023-05-16T13:29:02.972Z,19.68
2023-05-16T13:31:30.491Z,19.51
2023-05-16T13:33:59.078Z,19.53
2023-05-16T13:36:26.994Z,19.71
2023-05-16T13:38:55.098Z,19.83
2023-05-16T13:41:22.543Z,19.99
2023-05-16T13:43:50.031Z,19.69
2023-05-16T13:46:17.481Z,19.54
2023-05-16T13:48:45.085Z,19.44
2023-05-16T13:51:15.298Z,19.16
2023-05-16T13:53:48.169Z,19.09
2023-05-16T13:56:16.054Z,19.13
2023-05-16T13:58:59.695Z,19.10
2023-05-16T14:01:29.946Z,19.19
2023-05-16T14:03:57.778Z,19.32
2023-05-16T14:06:25.674Z,19.34
2023-05-16T14:08:53.568Z,19.31
2023-05-16T14:11:28.464Z,18.91
2023-05-16T14:13:57.996Z,18.95
2023-05-16T14:16:26.330Z,19.06
2023-05-16T14:18:54.140Z,18.98
2023-05-16T14:21:21.653Z,18.73
2023-05-16T14:23:49.191Z,18.73
2023-05-16T14:26:18.126Z,18.76
2023-05-16T14:28:45.662Z,18.74
2023-05-16T14:31:13.110Z,18.80
2023-05-16T14:33:41.251Z,18.73
2023-05-16T14:36:08.826Z,18.82
2023-05-16T14:38:36.734Z,18.80
2023-05-16T14:41:04.176Z,18.88
2023-05-16T14:43:31.871Z,18.88
2023-05-16T14:45:59.490Z,18.70
2023-05-16T14:48:27.093Z,18.72
2023-05-16T14:50:54.557Z,18.72
2023-05-16T14:53:22.089Z,18.67
2023-05-16T14:55:50.046Z,18.74
2023-05-16T14:58:17.765Z,18.70
2023-05-16T15:00:45.303Z,18.34
2023-05-16T15:03:15.672Z,18.41
2023-05-16T15:05:44.421Z,18.43
2023-05-16T15:08:11.957Z,18.42
2023-05-16T15:10:39.507Z,18.33
2023-05-16T15:13:08.316Z,18.35
2023-05-16T15:15:38.710Z,18.22
2023-05-16T15:18:06.315Z,18.12
2023-05-16T15:20:33.883Z,18.17
2023-05-16T15:23:01.321Z,18.14
2023-05-16T15:25:29.555Z,17.96
2023-05-16T15:27:57.510Z,17.90
2023-05-16T15:30:25.232Z,17.86
2023-05-16T15:32:52.925Z,17.70
2023-05-16T15:35:20.585Z,17.80
2023-05-16T15:37:47.995Z,17.74
2023-05-16T15:40:15.713Z,17.69
2023-05-16T15:42:44.398Z,17.75
2023-05-16T15:45:12.628Z,17.64
2023-05-16T15:47:42.033Z,17.53
2023-05-16T15:50:10.299Z,17.58
2023-05-16T15:52:37.759Z,17.75
2023-05-16T15:55:06.220Z,17.86
2023-05-16T15:57:33.658Z,17.91
2023-05-16T16:00:01.217Z,17.80
2023-05-16T16:02:28.818Z,17.84
2023-05-16T16:04:56.466Z,17.63
2023-05-16T16:07:24.862Z,17.54
2023-05-16T16:09:52.406Z,17.53
2023-05-16T16:12:19.839Z,17.51
2023-05-16T16:14:49.553Z,17.49
2023-05-16T16:17:17.277Z,17.49
2023-05-16T16:19:44.744Z,17.41
2023-05-16T16:22:12.170Z,17.53
2023-05-16T16:24:39.750Z,17.49
2023-05-16T16:27:07.235Z,17.48
2023-05-16T16:29:34.782Z,17.41
2023-05-16T16:32:02.223Z,17.41
2023-05-16T16:34:30.042Z,17.37
2023-05-16T16:36:57.516Z,17.43
2023-05-16T16:39:25.980Z,17.40
2023-05-16T16:41:53.516Z,17.36
2023-05-16T16:44:20.986Z,17.28
2023-05-16T16:46:48.532Z,17.18
2023-05-16T16:49:16.133Z,17.23
2023-05-16T16:51:43.615Z,17.32
2023-05-16T16:54:11.314Z,17.23
2023-05-16T16:56:38.778Z,17.20
2023-05-16T16:59:06.303Z,17.18
2023-05-16T17:01:35.037Z,17.13
2023-05-16T17:04:03.121Z,17.19
2023-05-16T17:06:30.956Z,17.07
2023-05-16T17:09:03.650Z,17.07
2023-05-16T17:11:31.916Z,17.01
2023-05-16T17:13:59.908Z,16.95
2023-05-16T17:16:30.289Z,16.83
2023-05-16T17:18:58.014Z,16.72
2023-05-16T17:21:26.817Z,16.79
2023-05-16T17:23:55.243Z,16.84
2023-05-16T17:26:22.853Z,16.82
2023-05-16T17:28:50.423Z,16.78
2023-05-16T17:31:17.976Z,16.73
2023-05-16T17:33:45.443Z,16.78
2023-05-16T17:36:12.952Z,16.75
2023-05-16T17:38:40.474Z,16.76
2023-05-16T17:41:07.980Z,16.74
2023-05-16T17:43:35.445Z,16.67
2023-05-16T17:46:04.039Z,16.68
2023-05-16T17:48:31.667Z,16.69
2023-05-16T17:50:59.249Z,16.63
2023-05-16T17:53:26.875Z,16.57
2023-05-16T17:55:54.359Z,16.50
2023-05-16T17:58:21.740Z,16.37
2023-05-16T18:00:49.349Z,16.30
2023-05-16T18:03:24.660Z,16.18
2023-05-16T18:06:00.594Z,16.19
2023-05-16T18:08:31.995Z,16.17
2023-05-16T18:11:01.727Z,16.16
2023-05-16T18:13:31.243Z,16.10
2023-05-16T18:15:58.893Z,16.14
2023-05-16T18:18:27.269Z,16.12
2023-05-16T18:20:55.112Z,16.09
2023-05-16T18:23:22.580Z,16.08
2023-05-16T18:25:50.367Z,16.07
2023-05-16T18:28:18.538Z,16.05
2023-05-16T18:30:46.071Z,15.99
2023-05-16T18:33:13.613Z,15.91
2023-05-16T18:35:41.076Z,15.87
2023-05-16T18:38:14.458Z,15.75
2023-05-16T18:40:48.658Z,15.75
2023-05-16T18:43:17.226Z,15.75
2023-05-16T18:45:44.836Z,15.76
2023-05-16T18:48:12.401Z,15.57
2023-05-16T18:50:40.098Z,15.55
2023-05-16T18:53:07.537Z,15.55
2023-05-16T18:55:35.240Z,15.46
2023-05-16T18:58:02.883Z,15.44
2023-05-16T19:00:30.456Z,15.43
2023-05-16T19:02:58.038Z,15.26
2023-05-16T19:05:25.871Z,15.25
2023-05-16T19:07:53.634Z,15.14
2023-05-16T19:10:21.851Z,15.14
2023-05-16T19:12:49.583Z,14.96
2023-05-16T19:15:17.496Z,14.98
2023-05-16T19:17:45.074Z,14.90
2023-05-16T19:20:12.811Z,14.82
2023-05-16T19:22:40.420Z,14.89
2023-05-16T19:25:08.673Z,14.67
2023-05-16T19:27:36.236Z,14.53
2023-05-16T19:30:04.160Z,14.66
2023-05-16T19:32:31.660Z,14.46
2023-05-16T19:34:59.275Z,14.41
2023-05-16T19:37:26.785Z,14.42
2023-05-16T19:39:56.567Z,14.41
2023-05-16T19:42:24.040Z,14.28
2023-05-16T19:44:51.879Z,14.24
2023-05-16T19:47:19.706Z,13.94
2023-05-16T19:49:47.412Z,13.99
2023-05-16T19:52:14.922Z,13.99
2023-05-16T19:54:42.504Z,14.06
2023-05-16T19:57:10.073Z,13.91
2023-05-16T19:59:38.284Z,13.85
2023-05-16T20:02:05.824Z,13.75
2023-05-16T20:04:34.534Z,13.71
2023-05-16T20:07:02.268Z,13.82
2023-05-16T20:09:29.969Z,13.67
2023-05-16T20:11:58.163Z,13.99
2023-05-16T20:14:26.411Z,13.78
2023-05-16T20:16:53.989Z,13.61
2023-05-16T20:19:21.638Z,13.62
2023-05-16T20:21:50.443Z,13.58
2023-05-16T20:24:17.965Z,13.41
2023-05-16T20:26:45.418Z,13.51
2023-05-16T20:29:13.179Z,13.56
2023-05-16T20:31:43.776Z,13.36
2023-05-16T20:34:11.468Z,13.49
2023-05-16T20:36:39.066Z,13.53
2023-05-16T20:39:09.095Z,13.42
2023-05-16T20:41:36.690Z,13.23
2023-05-16T20:44:04.375Z,13.25
2023-05-16T20:46:31.995Z,13.27
2023-05-16T20:48:59.509Z,13.13
2023-05-16T20:51:26.938Z,13.26
2023-05-16T20:53:54.540Z,13.11
2023-05-16T20:56:24.350Z,13.20
2023-05-16T20:58:51.958Z,13.09
2023-05-16T21:01:19.423Z,13.10
2023-05-16T21:03:46.964Z,13.13
2023-05-16T21:06:14.511Z,13.09
2023-05-16T21:08:42.013Z,12.99
2023-05-16T21:11:09.442Z,12.82
2023-05-16T21:13:37.042Z,12.67
2023-05-16T21:16:04.740Z,12.62
2023-05-16T21:18:33.126Z,12.62
2023-05-16T21:21:00.698Z,12.60
2023-05-16T21:23:28.473Z,12.47
2023-05-16T21:25:56.065Z,12.45
2023-05-16T21:28:23.597Z,12.53
2023-05-16T21:30:51.060Z,12.47
2023-05-16T21:33:18.581Z,12.37
2023-05-16T21:35:47.205Z,12.45
2023-05-16T21:38:14.818Z,12.53
2023-05-16T21:40:42.309Z,12.46
2023-05-16T21:43:10.084Z,12.41
2023-05-16T21:45:37.594Z,12.51
2023-05-16T21:48:05.381Z,12.36
2023-05-16T21:50:35.435Z,12.35
2023-05-16T21:53:03.137Z,12.33
2023-05-16T21:55:30.797Z,12.30
2023-05-16T21:57:58.343Z,12.26
2023-05-16T22:00:25.781Z,12.24
2023-05-16T22:02:53.362Z,12.20
2023-05-16T22:05:20.974Z,12.15
2023-05-16T22:07:48.640Z,12.01
2023-05-16T22:10:16.973Z,11.97
2023-05-16T22:12:44.486Z,12.09
2023-05-16T22:15:11.957Z,12.01
2023-05-16T22:17:39.678Z,12.24
2023-05-16T22:20:08.283Z,12.16
2023-05-16T22:22:36.418Z,12.02
2023-05-16T22:25:05.159Z,11.98
2023-05-16T22:27:32.785Z,11.89
2023-05-16T22:30:00.211Z,12.00
2023-05-16T22:32:27.929Z,12.00
2023-05-16T22:34:55.408Z,11.71
2023-05-16T22:37:23.340Z,11.51
2023-05-16T22:39:51.499Z,11.72
2023-05-16T22:42:19.420Z,11.66
2023-05-16T22:44:46.885Z,11.72
2023-05-16T22:47:14.442Z,11.60
2023-05-16T22:49:41.937Z,11.53
2023-05-16T22:52:09.382Z,11.50
2023-05-16T22:54:36.693Z,11.46
2023-05-16T22:57:04.394Z,11.33
2023-05-16T22:59:32.132Z,11.40
2023-05-16T23:01:59.674Z,11.27
2023-05-16T23:04:27.175Z,11.28
2023-05-16T23:06:54.766Z,11.44
2023-05-16T23:09:22.689Z,11.54
2023-05-16T23:11:50.214Z,11.26
2023-05-16T23:14:17.724Z,11.32
2023-05-16T23:16:45.152Z,11.24
2023-05-16T23:19:12.440Z,11.23
2023-05-16T23:21:40.085Z,11.08
2023-05-16T23:24:08.354Z,10.98
2023-05-16T23:26:35.957Z,10.95
2023-05-16T23:29:03.583Z,11.20
2023-05-16T23:31:31.162Z,11.19
2023-05-16T23:33:58.642Z,11.01
2023-05-16T23:36:26.402Z,11.08
2023-05-16T23:38:53.908Z,11.34
2023-05-16T23:41:21.367Z,11.22
2023-05-16T23:43:48.715Z,11.01
2023-05-16T23:46:16.235Z,10.99
2023-05-16T23:48:43.715Z,10.91
2023-05-16T23:51:11.225Z,10.89
2023-05-16T23:53:38.499Z,10.87
2023-05-16T23:56:06.116Z,11.05
2023-05-16T23:58:33.808Z,11.21
